Time;durP1;ratioP1;P1;durP2;ratioP2;P2;SDS_P1;SDS_P2;PMS_P1;PMS_P2;Temp;Humidity;BMP_temperature;BMP_pressure;BME280_temperature;BME280_humidity;BME280_pressure;Samples;Min_cycle;Max_cycle;Signal;HPM_P1;HPM_P2
2023/04/08 00:01:23;;;;;;;16.52;7.95;;;10.50;99.90;;;;;;4997267;28;20221;-63
2023/04/08 00:03:49;;;;;;;10.95;6.35;;;10.40;99.90;;;;;;5016297;28;20559;-64
2023/04/08 00:06:15;;;;;;;11.98;6.78;;;10.40;99.90;;;;;;5007166;28;20715;-63
2023/04/08 00:08:40;;;;;;;8.25;5.60;;;10.30;99.90;;;;;;5029040;28;20179;-64
2023/04/08 00:11:06;;;;;;;11.57;6.18;;;10.30;99.90;;;;;;5006501;28;20662;-64
2023/04/08 00:13:32;;;;;;;9.98;5.65;;;10.30;99.90;;;;;;5015446;28;20186;-64
2023/04/08 00:15:58;;;;;;;17.50;6.07;;;10.30;99.90;;;;;;5022553;28;20214;-64
2023/04/08 00:18:23;;;;;;;9.23;5.77;;;10.30;99.90;;;;;;5028963;28;20235;-63
2023/04/08 00:20:49;;;;;;;8.70;5.57;;;10.40;99.90;;;;;;5031853;28;20186;-64
2023/04/08 00:23:15;;;;;;;10.85;5.95;;;10.40;99.90;;;;;;5011615;28;20190;-63
2023/04/08 00:25:41;;;;;;;12.32;5.68;;;10.40;99.90;;;;;;5015435;28;20273;-65
2023/04/08 00:28:07;;;;;;;12.73;5.65;;;10.30;99.90;;;;;;5019607;28;20192;-64
2023/04/08 00:30:33;;;;;;;13.38;5.72;;;10.30;99.90;;;;;;5006164;28;20557;-64
2023/04/08 00:33:00;;;;;;;8.70;6.68;;;10.20;99.90;;;;;;5011274;28;20193;-65
2023/04/08 00:35:26;;;;;;;12.55;6.03;;;10.20;99.90;;;;;;5026025;28;20710;-64
2023/04/08 00:37:51;;;;;;;13.18;5.53;;;10.30;99.90;;;;;;5012283;28;20269;-64
2023/04/08 00:40:17;;;;;;;9.48;6.65;;;10.30;99.90;;;;;;5015098;28;20188;-65
2023/04/08 00:42:43;;;;;;;11.23;6.50;;;10.20;99.90;;;;;;5023631;28;20281;-64
2023/04/08 00:45:09;;;;;;;18.50;7.00;;;10.30;99.90;;;;;;5022780;28;20196;-64
2023/04/08 00:47:35;;;;;;;10.80;8.23;;;10.30;99.90;;;;;;5011457;28;20303;-65
2023/04/08 00:50:01;;;;;;;15.38;7.72;;;10.20;99.90;;;;;;5029048;28;20669;-64
2023/04/08 00:52:27;;;;;;;13.55;6.57;;;10.20;99.90;;;;;;5021034;28;20285;-64
2023/04/08 00:54:53;;;;;;;12.10;7.47;;;10.30;99.90;;;;;;5018189;28;20262;-64
2023/04/08 00:57:18;;;;;;;12.85;7.15;;;10.30;99.90;;;;;;5023779;28;20641;-64
2023/04/08 00:59:44;;;;;;;8.43;6.72;;;10.30;99.90;;;;;;5024534;28;20251;-65
2023/04/08 01:02:25;;;;;;;13.50;7.40;;;10.20;99.90;;;;;;5010609;28;20196;-64
2023/04/08 01:05:07;;;;;;;17.67;6.63;;;10.20;99.90;;;;;;5020461;28;20637;-64
2023/04/08 01:07:40;;;;;;;15.63;6.43;;;10.10;99.90;;;;;;5015197;28;20186;-64
2023/04/08 01:10:14;;;;;;;11.07;5.77;;;10.00;99.90;;;;;;5021329;28;20178;-65
2023/04/08 01:12:48;;;;;;;16.53;6.90;;;10.00;99.90;;;;;;5021806;28;20653;-64
2023/04/08 01:15:14;;;;;;;10.47;6.20;;;10.00;99.90;;;;;;5015391;28;20235;-64
2023/04/08 01:17:42;;;;;;;10.97;6.53;;;10.00;99.90;;;;;;5009995;28;20273;-65
2023/04/08 01:20:09;;;;;;;11.10;6.07;;;10.10;99.90;;;;;;5006495;28;20623;-66
2023/04/08 01:22:59;;;;;;;16.00;7.23;;;10.10;99.90;;;;;;5017385;28;20196;-68
2023/04/08 01:25:36;;;;;;;20.80;8.53;;;10.20;99.90;;;;;;5009218;28;20550;-64
2023/04/08 01:28:10;;;;;;;10.43;6.82;;;10.30;99.90;;;;;;5005330;28;20193;-64
2023/04/08 01:30:39;;;;;;;10.85;6.85;;;10.30;99.90;;;;;;5012102;28;20187;-64
2023/04/08 01:33:05;;;;;;;11.57;7.50;;;10.30;99.90;;;;;;5006657;28;20194;-64
2023/04/08 01:35:31;;;;;;;21.07;7.47;;;10.30;99.90;;;;;;4997722;28;20188;-64
2023/04/08 01:37:59;;;;;;;16.77;7.20;;;10.40;99.90;;;;;;5000590;28;20698;-65
2023/04/08 01:40:25;;;;;;;17.23;7.82;;;10.30;99.90;;;;;;5004055;28;20234;-65
2023/04/08 01:42:54;;;;;;;18.13;8.43;;;10.30;99.90;;;;;;5012605;28;20583;-64
2023/04/08 01:45:21;;;;;;;17.13;7.07;;;10.20;99.90;;;;;;5007150;28;20196;-64
2023/04/08 01:47:48;;;;;;;13.47;7.20;;;10.10;99.90;;;;;;5007729;28;20180;-64
2023/04/08 01:50:15;;;;;;;15.60;7.63;;;10.10;99.90;;;;;;5028999;28;20266;-64
2023/04/08 01:52:45;;;;;;;13.70;7.72;;;10.00;99.90;;;;;;4997958;28;20656;-64
2023/04/08 01:55:10;;;;;;;18.85;8.32;;;10.00;99.90;;;;;;5004387;28;20187;-64
2023/04/08 01:57:38;;;;;;;10.20;6.70;;;10.10;99.90;;;;;;5000420;28;20211;-64
2023/04/08 02:00:09;;;;;;;13.10;7.25;;;10.10;99.90;;;;;;5004518;28;20188;-64
2023/04/08 02:02:35;;;;;;;17.27;6.80;;;10.00;99.90;;;;;;5004589;28;20176;-64
2023/04/08 02:05:02;;;;;;;15.20;8.90;;;9.90;99.90;;;;;;5000437;28;20191;-64
2023/04/08 02:07:28;;;;;;;20.80;7.73;;;10.00;99.90;;;;;;4996375;28;20195;-64
2023/04/08 02:09:55;;;;;;;14.53;8.43;;;9.90;99.90;;;;;;5010935;28;20587;-64
2023/04/08 02:12:21;;;;;;;14.33;8.07;;;9.90;99.90;;;;;;5001694;28;20188;-65
2023/04/08 02:14:47;;;;;;;14.80;8.17;;;9.90;99.90;;;;;;4996857;28;20555;-64
2023/04/08 02:17:25;;;;;;;15.90;8.00;;;10.00;99.90;;;;;;5002262;28;20326;-64
2023/04/08 02:19:57;;;;;;;19.87;9.00;;;10.00;99.90;;;;;;4999938;28;20641;-65
2023/04/08 02:22:35;;;;;;;19.73;10.07;;;10.00;99.90;;;;;;5003591;28;20309;-64
2023/04/08 02:25:03;;;;;;;13.70;7.60;;;9.90;99.90;;;;;;5009731;28;20880;-64
2023/04/08 02:27:33;;;;;;;20.33;10.10;;;10.00;99.90;;;;;;5003865;28;20235;-64
2023/04/08 02:30:02;;;;;;;23.37;11.00;;;10.00;99.90;;;;;;4999597;28;20625;-64
2023/04/08 02:32:31;;;;;;;17.57;10.93;;;10.10;99.90;;;;;;5005185;28;20279;-64
2023/04/08 02:34:59;;;;;;;21.27;10.73;;;10.00;99.90;;;;;;4994069;28;20186;-65
2023/04/08 02:37:27;;;;;;;22.73;9.60;;;10.10;99.90;;;;;;5012974;28;20290;-66
2023/04/08 02:39:53;;;;;;;28.57;11.57;;;10.20;99.90;;;;;;5014243;28;20274;-64
2023/04/08 02:42:18;;;;;;;27.73;11.87;;;10.30;99.90;;;;;;5010511;28;20271;-64
2023/04/08 02:44:44;;;;;;;19.83;9.73;;;10.20;99.90;;;;;;5004456;28;20184;-65
2023/04/08 02:47:10;;;;;;;16.57;8.90;;;10.10;99.90;;;;;;5011600;28;20609;-65
2023/04/08 02:49:35;;;;;;;17.87;9.03;;;10.10;99.90;;;;;;5007879;28;20636;-65
2023/04/08 02:52:01;;;;;;;15.73;8.93;;;10.00;99.90;;;;;;5011786;28;20184;-65
2023/04/08 02:54:27;;;;;;;17.93;10.10;;;10.00;99.90;;;;;;5016604;28;20245;-69
2023/04/08 02:56:52;;;;;;;15.40;9.87;;;10.00;99.90;;;;;;5008616;28;20289;-65
2023/04/08 02:59:18;;;;;;;20.03;9.60;;;9.90;99.90;;;;;;5011848;28;20605;-65
2023/04/08 03:01:44;;;;;;;26.93;10.00;;;10.00;99.90;;;;;;5006472;28;20648;-65
2023/04/08 03:04:10;;;;;;;23.47;11.73;;;9.90;99.90;;;;;;5012191;28;20262;-65
2023/04/08 03:06:35;;;;;;;18.43;10.90;;;9.90;99.90;;;;;;5014510;28;20187;-65
2023/04/08 03:09:01;;;;;;;27.53;10.90;;;9.90;99.90;;;;;;5013005;28;20184;-65
2023/04/08 03:11:27;;;;;;;24.20;12.77;;;9.80;99.90;;;;;;5012470;28;20632;-66
2023/04/08 03:13:52;;;;;;;21.83;11.97;;;9.80;99.90;;;;;;5001504;28;20188;-66
2023/04/08 03:16:18;;;;;;;29.17;13.00;;;9.70;99.90;;;;;;5010534;28;20239;-65
2023/04/08 03:18:44;;;;;;;22.50;12.33;;;9.80;99.90;;;;;;5001504;28;20672;-65
2023/04/08 03:21:09;;;;;;;31.87;13.20;;;9.80;99.90;;;;;;5003876;28;20176;-65
2023/04/08 03:23:35;;;;;;;23.37;11.70;;;9.80;99.90;;;;;;5043575;28;20187;-65
2023/04/08 03:26:01;;;;;;;22.33;12.40;;;9.70;99.90;;;;;;5015627;28;20668;-65
2023/04/08 03:28:26;;;;;;;21.43;11.83;;;9.90;99.90;;;;;;5000382;28;20578;-67
2023/04/08 03:30:52;;;;;;;22.73;11.70;;;9.80;99.90;;;;;;5007582;28;20219;-65
2023/04/08 03:33:18;;;;;;;24.53;12.07;;;9.80;99.90;;;;;;5005340;28;20188;-65
2023/04/08 03:35:43;;;;;;;25.17;11.83;;;9.90;99.90;;;;;;5011434;28;20188;-71
2023/04/08 03:38:09;;;;;;;27.87;12.07;;;9.90;99.90;;;;;;5001732;28;20180;-66
2023/04/08 03:40:35;;;;;;;31.70;12.33;;;9.90;99.90;;;;;;5039569;28;20318;-65
2023/04/08 03:43:00;;;;;;;22.17;11.33;;;9.90;99.90;;;;;;5013021;28;20202;-68
2023/04/08 03:45:26;;;;;;;21.10;12.17;;;9.90;99.90;;;;;;5011005;28;20195;-66
2023/04/08 03:47:52;;;;;;;21.00;11.27;;;9.90;99.90;;;;;;5010761;28;20184;-65
2023/04/08 03:50:17;;;;;;;33.27;13.93;;;9.90;99.90;;;;;;5006126;28;20197;-65
2023/04/08 03:52:43;;;;;;;27.23;13.93;;;9.90;99.90;;;;;;5002556;28;20187;-65
2023/04/08 03:55:09;;;;;;;25.43;12.47;;;9.80;99.90;;;;;;5008908;28;20206;-66
2023/04/08 03:57:34;;;;;;;19.00;10.10;;;9.90;99.90;;;;;;4997642;28;20214;-65
2023/04/08 04:00:00;;;;;;;24.10;11.70;;;9.80;99.90;;;;;;4995913;28;20199;-67
2023/04/08 04:02:26;;;;;;;22.33;12.37;;;9.90;99.90;;;;;;5011445;28;20191;-65
2023/04/08 04:04:51;;;;;;;20.53;10.57;;;9.80;99.90;;;;;;5028194;28;20399;-65
2023/04/08 04:07:17;;;;;;;23.87;11.20;;;9.80;99.90;;;;;;4995918;28;20206;-65
2023/04/08 04:09:43;;;;;;;25.87;12.50;;;9.90;99.90;;;;;;5007309;28;20187;-65
2023/04/08 04:12:08;;;;;;;23.83;10.60;;;9.80;99.90;;;;;;5001530;28;20191;-65
2023/04/08 04:14:34;;;;;;;23.40;12.30;;;9.80;99.90;;;;;;4999243;28;20195;-65
2023/04/08 04:17:00;;;;;;;28.33;14.00;;;9.80;99.90;;;;;;5012118;28;20770;-66
2023/04/08 04:19:30;;;;;;;30.67;13.03;;;9.90;99.90;;;;;;5010122;28;20211;-65
2023/04/08 04:21:56;;;;;;;16.80;10.80;;;9.80;99.90;;;;;;4996047;28;20656;-65
2023/04/08 04:24:21;;;;;;;28.50;14.50;;;9.80;99.90;;;;;;5001473;28;20188;-65
2023/04/08 04:26:47;;;;;;;33.07;17.57;;;9.80;99.90;;;;;;5002566;28;20184;-65
2023/04/08 04:29:12;;;;;;;30.50;15.33;;;10.00;99.90;;;;;;5005680;28;20190;-65
2023/04/08 04:31:38;;;;;;;32.43;18.40;;;10.00;99.90;;;;;;5003658;28;20200;-65
2023/04/08 04:34:04;;;;;;;34.70;19.33;;;10.00;99.90;;;;;;5012901;28;20710;-65
2023/04/08 04:36:31;;;;;;;34.87;18.27;;;10.00;99.90;;;;;;5005115;28;20207;-65
2023/04/08 04:38:56;;;;;;;40.43;21.43;;;9.90;99.90;;;;;;5003565;28;20206;-66
2023/04/08 04:41:22;;;;;;;39.60;19.13;;;10.00;99.90;;;;;;5011757;28;20270;-65
2023/04/08 04:43:47;;;;;;;36.90;17.30;;;10.10;99.90;;;;;;4998776;28;20265;-65
2023/04/08 04:46:14;;;;;;;31.93;18.37;;;10.00;99.90;;;;;;5007893;28;20187;-65
2023/04/08 04:48:39;;;;;;;35.17;17.80;;;10.00;99.90;;;;;;5001490;28;20184;-65
2023/04/08 04:51:06;;;;;;;31.87;15.53;;;9.90;99.90;;;;;;5004773;28;20238;-65
2023/04/08 04:53:32;;;;;;;30.07;16.67;;;10.00;99.90;;;;;;5004158;28;20642;-65
2023/04/08 04:56:00;;;;;;;31.60;17.33;;;10.00;99.90;;;;;;4998685;28;20218;-65
2023/04/08 04:58:25;;;;;;;33.43;19.40;;;10.00;99.90;;;;;;5031565;28;20551;-65
2023/04/08 05:00:51;;;;;;;33.25;16.90;;;10.00;99.90;;;;;;5003086;28;20180;-66
2023/04/08 05:03:16;;;;;;;34.10;17.03;;;10.20;99.90;;;;;;5006825;28;20194;-65
2023/04/08 05:05:42;;;;;;;27.03;16.40;;;10.10;99.90;;;;;;5007662;28;20187;-65
2023/04/08 05:08:08;;;;;;;29.93;13.10;;;10.00;99.90;;;;;;5001716;28;20234;-65
2023/04/08 05:10:33;;;;;;;25.27;14.00;;;10.00;99.90;;;;;;5025007;28;20188;-65
2023/04/08 05:12:59;;;;;;;32.20;12.85;;;9.90;99.90;;;;;;5037663;28;20199;-65
2023/04/08 05:15:25;;;;;;;25.33;14.03;;;9.90;99.90;;;;;;5009976;28;20187;-66
2023/04/08 05:17:50;;;;;;;24.30;13.53;;;9.80;99.90;;;;;;5004397;28;20285;-65
2023/04/08 05:20:16;;;;;;;26.73;12.17;;;9.90;99.90;;;;;;5011085;28;20195;-65
2023/04/08 05:22:44;;;;;;;21.37;11.57;;;10.00;99.90;;;;;;5001003;28;20629;-66
2023/04/08 05:25:10;;;;;;;21.87;12.80;;;10.10;99.90;;;;;;5011269;28;20175;-71
2023/04/08 05:27:36;;;;;;;24.60;11.70;;;10.00;99.90;;;;;;5029174;28;20653;-65
2023/04/08 05:30:03;;;;;;;27.07;13.20;;;10.00;99.90;;;;;;4994398;28;20192;-65
2023/04/08 05:32:29;;;;;;;24.03;11.60;;;10.20;99.90;;;;;;5001871;28;20547;-65
2023/04/08 05:34:54;;;;;;;19.43;10.37;;;10.10;99.90;;;;;;5006649;28;20188;-66
2023/04/08 05:37:20;;;;;;;20.07;10.97;;;10.00;99.90;;;;;;5000496;28;20360;-65
2023/04/08 05:39:46;;;;;;;28.63;11.57;;;10.00;99.90;;;;;;5010297;28;20698;-65
2023/04/08 05:42:12;;;;;;;19.97;11.10;;;9.90;99.90;;;;;;5005328;28;20670;-65
2023/04/08 05:44:40;;;;;;;28.83;12.90;;;10.10;99.90;;;;;;5009840;28;20279;-66
2023/04/08 05:47:06;;;;;;;22.17;11.80;;;10.20;99.90;;;;;;5001303;28;20188;-66
2023/04/08 05:49:33;;;;;;;22.83;13.53;;;10.20;99.90;;;;;;5027239;28;20195;-66
2023/04/08 05:51:58;;;;;;;29.73;14.43;;;10.10;99.90;;;;;;5009299;28;20195;-66
2023/04/08 05:54:24;;;;;;;29.43;13.73;;;10.20;99.90;;;;;;5006479;28;20187;-66
2023/04/08 05:56:49;;;;;;;25.37;12.73;;;10.20;99.90;;;;;;5010863;28;20246;-71
2023/04/08 05:59:15;;;;;;;26.97;13.43;;;10.10;99.90;;;;;;5011043;28;20211;-66
2023/04/08 06:01:41;;;;;;;26.27;12.37;;;10.20;99.90;;;;;;4993731;28;20194;-65
2023/04/08 06:04:06;;;;;;;30.73;14.93;;;10.30;99.90;;;;;;5034964;28;20275;-65
2023/04/08 06:06:32;;;;;;;21.70;12.90;;;10.30;99.90;;;;;;5005538;28;20202;-65
2023/04/08 06:08:58;;;;;;;22.77;12.95;;;10.40;99.90;;;;;;4999308;28;20541;-65
2023/04/08 06:11:23;;;;;;;25.75;11.88;;;10.50;99.90;;;;;;5009769;28;20270;-65
2023/04/08 06:13:49;;;;;;;24.35;11.10;;;10.50;99.90;;;;;;5009690;28;20214;-65
2023/04/08 06:16:16;;;;;;;21.10;11.93;;;10.50;99.90;;;;;;5004049;28;20210;-65
2023/04/08 06:18:42;;;;;;;28.33;12.38;;;10.60;99.90;;;;;;5007674;28;20223;-65
2023/04/08 06:21:08;;;;;;;27.38;12.93;;;10.60;99.90;;;;;;4999581;28;20180;-64
2023/04/08 06:23:34;;;;;;;25.80;14.48;;;10.70;99.90;;;;;;5007834;28;20176;-65
2023/04/08 06:25:59;;;;;;;21.85;11.45;;;10.80;99.90;;;;;;5012943;28;20195;-65
2023/04/08 06:28:25;;;;;;;23.25;12.07;;;10.90;99.90;;;;;;5012573;28;20210;-65
2023/04/08 06:30:51;;;;;;;24.75;12.80;;;10.90;99.90;;;;;;5011109;28;20629;-64
2023/04/08 06:33:16;;;;;;;23.90;12.95;;;11.00;99.90;;;;;;5001519;28;20188;-64
2023/04/08 06:35:42;;;;;;;27.55;12.95;;;11.10;99.90;;;;;;5014444;28;20187;-64
2023/04/08 06:38:08;;;;;;;23.75;11.65;;;11.30;99.90;;;;;;5010282;28;20187;-69
2023/04/08 06:40:33;;;;;;;24.30;13.18;;;11.40;99.90;;;;;;5014391;28;20273;-65
2023/04/08 06:42:59;;;;;;;24.92;11.70;;;11.50;99.90;;;;;;5005827;28;20192;-64
2023/04/08 06:45:25;;;;;;;25.77;12.15;;;11.70;99.90;;;;;;5013333;28;20191;-66
2023/04/08 06:47:51;;;;;;;28.17;12.27;;;11.80;99.90;;;;;;5012464;28;20540;-65
2023/04/08 06:50:17;;;;;;;25.63;12.55;;;11.90;99.90;;;;;;5012784;28;20614;-68
2023/04/08 06:52:42;;;;;;;22.13;12.32;;;11.80;99.90;;;;;;5014219;28;20214;-65
2023/04/08 06:55:08;;;;;;;26.27;13.25;;;11.80;99.90;;;;;;5009207;28;20184;-65
2023/04/08 06:57:34;;;;;;;18.30;11.18;;;11.90;99.90;;;;;;5011470;28;20676;-65
2023/04/08 06:59:59;;;;;;;27.08;14.18;;;11.70;99.90;;;;;;5010964;28;20187;-64
2023/04/08 07:02:25;;;;;;;26.60;12.13;;;11.80;99.90;;;;;;5004400;28;20664;-67
2023/04/08 07:04:51;;;;;;;22.60;11.55;;;12.00;99.90;;;;;;5004239;28;20226;-65
2023/04/08 07:07:17;;;;;;;22.70;13.35;;;12.00;99.90;;;;;;5007077;28;20215;-64
2023/04/08 07:09:44;;;;;;;28.70;14.63;;;12.00;99.90;;;;;;5004782;28;20184;-65
2023/04/08 07:12:11;;;;;;;32.65;16.60;;;12.10;99.90;;;;;;5014468;28;20270;-65
2023/04/08 07:14:36;;;;;;;24.70;14.63;;;12.10;99.90;;;;;;5009053;28;20180;-65
2023/04/08 07:17:02;;;;;;;25.95;12.15;;;12.20;99.90;;;;;;4998249;28;20259;-67
2023/04/08 07:19:28;;;;;;;25.25;13.00;;;12.40;99.90;;;;;;5013011;28;20184;-64
2023/04/08 07:21:54;;;;;;;26.08;14.05;;;12.40;99.90;;;;;;5011023;28;20184;-65
2023/04/08 07:24:19;;;;;;;24.58;13.43;;;12.60;99.90;;;;;;5001533;28;20633;-65
2023/04/08 07:26:45;;;;;;;28.42;14.45;;;12.70;99.90;;;;;;5006332;28;20183;-65
2023/04/08 07:29:11;;;;;;;17.77;11.38;;;13.30;99.90;;;;;;5012100;28;20587;-65
2023/04/08 07:31:36;;;;;;;23.60;12.43;;;13.40;99.90;;;;;;5011143;28;20591;-65
2023/04/08 07:34:02;;;;;;;23.00;11.98;;;13.20;99.90;;;;;;5012680;28;20191;-65
2023/04/08 07:36:28;;;;;;;21.80;13.25;;;12.90;99.90;;;;;;5016434;28;20222;-66
2023/04/08 07:38:54;;;;;;;23.95;11.45;;;12.60;99.90;;;;;;5006526;28;20691;-65
2023/04/08 07:41:20;;;;;;;24.35;12.30;;;12.70;99.90;;;;;;5011067;28;20183;-67
2023/04/08 07:43:46;;;;;;;24.33;12.32;;;12.60;99.90;;;;;;5046187;28;20187;-66
2023/04/08 07:46:11;;;;;;;18.35;11.65;;;12.50;99.90;;;;;;5000164;28;20188;-70
2023/04/08 07:48:37;;;;;;;19.83;12.60;;;12.40;99.90;;;;;;5021034;28;20529;-66
2023/04/08 07:51:07;;;;;;;24.95;12.38;;;12.50;99.90;;;;;;5003175;28;20203;-65
2023/04/08 07:53:33;;;;;;;22.70;12.10;;;12.40;99.90;;;;;;5000646;28;20179;-66
2023/04/08 07:55:59;;;;;;;18.80;11.30;;;12.50;99.90;;;;;;5003772;28;20254;-71
2023/04/08 07:58:25;;;;;;;26.88;13.00;;;12.50;99.90;;;;;;4998945;28;20192;-66
2023/04/08 08:00:51;;;;;;;25.05;13.25;;;12.60;99.90;;;;;;5003447;28;20513;-66
2023/04/08 08:03:17;;;;;;;27.63;14.60;;;12.80;99.90;;;;;;5009999;28;20266;-66
2023/04/08 08:05:42;;;;;;;21.13;11.60;;;13.50;99.90;;;;;;5006819;28;20512;-64
2023/04/08 08:08:10;;;;;;;29.60;12.43;;;14.00;99.90;;;;;;5008895;28;20191;-65
2023/04/08 08:10:37;;;;;;;22.95;12.82;;;14.30;99.90;;;;;;5009358;28;20176;-65
2023/04/08 08:13:04;;;;;;;18.75;12.45;;;14.30;99.90;;;;;;5003692;28;20180;-64
2023/04/08 08:15:30;;;;;;;20.45;11.60;;;14.30;99.90;;;;;;5008289;28;20198;-65
2023/04/08 08:17:56;;;;;;;20.10;12.00;;;14.00;99.90;;;;;;5005814;28;20653;-64
2023/04/08 08:20:21;;;;;;;22.30;12.77;;;13.40;99.90;;;;;;5004329;28;20271;-65
2023/04/08 08:22:47;;;;;;;19.05;12.93;;;13.40;99.90;;;;;;4998123;28;20226;-65
2023/04/08 08:25:13;;;;;;;21.80;12.32;;;13.70;99.90;;;;;;5006333;28;20189;-65
2023/04/08 08:27:40;;;;;;;20.80;12.93;;;13.60;99.90;;;;;;5009157;28;20192;-65
2023/04/08 08:30:08;;;;;;;25.40;12.70;;;13.60;99.90;;;;;;5001040;28;20192;-65
2023/04/08 08:32:34;;;;;;;21.90;12.18;;;13.70;99.90;;;;;;4999769;28;20767;-65
2023/04/08 08:35:00;;;;;;;22.10;12.55;;;13.60;99.90;;;;;;5011687;28;20211;-63
2023/04/08 08:37:26;;;;;;;26.70;13.35;;;13.40;99.90;;;;;;5011789;28;20241;-65
2023/04/08 08:39:51;;;;;;;23.23;11.63;;;13.20;99.90;;;;;;5008739;28;20191;-65
2023/04/08 08:42:22;;;;;;;25.60;12.48;;;13.20;99.90;;;;;;5004877;28;20649;-64
2023/04/08 08:44:48;;;;;;;25.15;13.68;;;12.90;99.90;;;;;;5011992;28;20599;-65
2023/04/08 08:47:15;;;;;;;27.88;13.25;;;12.60;99.90;;;;;;5043378;28;20547;-65
2023/04/08 08:49:41;;;;;;;26.25;14.30;;;12.40;99.90;;;;;;5009524;28;20266;-66
2023/04/08 08:52:06;;;;;;;25.30;12.63;;;12.40;99.90;;;;;;5008688;28;20199;-66
2023/04/08 08:54:32;;;;;;;28.65;14.07;;;12.30;99.90;;;;;;5004205;28;20539;-65
2023/04/08 08:56:58;;;;;;;26.10;14.95;;;12.20;99.90;;;;;;5002884;28;20246;-65
2023/04/08 08:59:24;;;;;;;27.55;16.17;;;12.40;99.90;;;;;;5039290;28;20253;-64
2023/04/08 09:01:50;;;;;;;32.53;16.60;;;12.60;99.90;;;;;;5008062;28;20168;-65
2023/04/08 09:04:21;;;;;;;28.33;16.83;;;12.60;99.90;;;;;;5041794;28;20179;-66
2023/04/08 09:07:07;;;;;;;28.55;17.52;;;12.60;99.90;;;;;;5024604;28;20210;-65
2023/04/08 09:09:50;;;;;;;32.95;17.10;;;12.80;99.90;;;;;;5004998;28;20190;-71
2023/04/08 09:12:16;;;;;;;31.60;15.48;;;12.80;99.90;;;;;;5006616;28;20183;-66
2023/04/08 09:14:42;;;;;;;37.75;19.40;;;12.70;99.90;;;;;;5012003;28;20183;-66
2023/04/08 09:17:07;;;;;;;35.53;17.55;;;12.70;99.90;;;;;;5008573;28;20243;-68
2023/04/08 09:19:33;;;;;;;35.95;19.02;;;12.70;99.90;;;;;;5004946;28;20183;-71
2023/04/08 09:22:09;;;;;;;32.33;17.30;;;12.60;99.90;;;;;;5008798;28;20210;-66
2023/04/08 09:24:36;;;;;;;36.47;17.10;;;12.70;99.90;;;;;;5002041;28;20187;-66
2023/04/08 09:27:03;;;;;;;36.42;16.73;;;12.90;99.90;;;;;;4998591;28;20238;-65
2023/04/08 09:29:29;;;;;;;33.28;17.65;;;13.20;99.90;;;;;;4993794;28;20594;-67
2023/04/08 09:31:57;;;;;;;27.05;15.68;;;13.40;99.90;;;;;;5009718;28;20278;-66
2023/04/08 09:34:25;;;;;;;31.05;16.55;;;13.60;99.90;;;;;;5006037;28;20272;-67
2023/04/08 09:36:52;;;;;;;29.92;15.48;;;13.50;99.90;;;;;;4999685;28;20204;-66
2023/04/08 09:39:18;;;;;;;28.92;14.60;;;13.60;99.90;;;;;;5004783;28;20661;-66
2023/04/08 09:41:48;;;;;;;26.70;15.02;;;13.70;99.90;;;;;;5003521;28;20198;-66
2023/04/08 09:44:15;;;;;;;32.80;15.65;;;14.00;99.90;;;;;;5006296;28;20437;-66
2023/04/08 09:46:53;;;;;;;26.45;13.77;;;14.20;99.90;;;;;;4999522;28;20183;-65
2023/04/08 09:49:26;;;;;;;23.40;14.43;;;14.30;99.90;;;;;;4998562;28;20300;-66
2023/04/08 09:52:16;;;;;;;34.17;16.08;;;14.40;99.90;;;;;;4998337;28;20649;-71
2023/04/08 09:55:00;;;;;;;27.58;14.77;;;14.50;99.90;;;;;;5021399;28;20185;-65
2023/04/08 09:57:45;;;;;;;28.55;15.00;;;14.50;99.90;;;;;;5011300;28;20199;-67
2023/04/08 10:00:15;;;;;;;25.00;14.20;;;14.80;99.90;;;;;;5000190;28;20188;-69
2023/04/08 10:03:00;;;;;;;23.20;15.50;;;15.10;99.90;;;;;;5007756;28;20167;-65
2023/04/08 10:05:26;;;;;;;24.83;13.10;;;15.30;99.90;;;;;;5014770;28;20186;-68
2023/04/08 10:07:54;;;;;;;19.75;11.85;;;15.60;99.90;;;;;;5011258;28;20222;-65
2023/04/08 10:10:21;;;;;;;23.98;12.95;;;15.70;99.90;;;;;;5001466;28;20246;-74
2023/04/08 10:12:47;;;;;;;19.63;12.63;;;15.70;99.90;;;;;;5003241;28;20201;-70
2023/04/08 10:15:29;;;;;;;17.80;10.63;;;15.90;99.90;;;;;;5007181;28;20209;-65
2023/04/08 10:18:19;;;;;;;18.70;11.70;;;16.10;99.90;;;;;;5009789;28;20242;-63
2023/04/08 10:20:46;;;;;;;21.27;12.38;;;16.30;99.90;;;;;;5006428;28;20285;-63
2023/04/08 10:23:14;;;;;;;16.67;10.73;;;16.80;99.90;;;;;;5007855;28;20202;-63
2023/04/08 10:25:43;;;;;;;18.02;11.32;;;16.90;99.90;;;;;;5001925;28;20263;-64
2023/04/08 10:28:18;;;;;;;19.63;12.65;;;16.50;99.90;;;;;;4996622;28;20184;-70
2023/04/08 10:30:45;;;;;;;20.25;12.70;;;16.10;99.90;;;;;;5000314;28;20182;-67
2023/04/08 10:33:29;;;;;;;19.83;11.80;;;16.10;99.90;;;;;;5011728;28;20186;-66
2023/04/08 10:36:08;;;;;;;20.75;11.50;;;15.70;99.90;;;;;;5008951;28;20190;-64
2023/04/08 10:38:34;;;;;;;15.20;10.00;;;15.60;99.90;;;;;;5001562;28;20192;-65
2023/04/08 10:41:01;;;;;;;19.70;11.00;;;15.50;99.90;;;;;;5040923;28;20739;-64
2023/04/08 10:43:31;;;;;;;13.20;9.40;;;15.50;99.90;;;;;;5004739;28;20176;-65
2023/04/08 10:45:57;;;;;;;12.48;7.78;;;15.30;99.90;;;;;;5010786;28;20188;-70
2023/04/08 10:48:25;;;;;;;14.02;9.77;;;15.30;99.90;;;;;;5010512;28;20218;-65
2023/04/08 10:51:02;;;;;;;15.75;10.07;;;15.10;99.90;;;;;;5007499;28;20210;-65
2023/04/08 10:53:36;;;;;;;20.40;10.68;;;15.10;99.90;;;;;;5002914;28;20186;-65
2023/04/08 10:56:14;;;;;;;17.65;11.25;;;14.90;99.90;;;;;;5011112;28;20179;-66
2023/04/08 10:58:50;;;;;;;19.00;10.68;;;14.70;99.90;;;;;;5011459;28;20178;-66
2023/04/08 11:01:16;;;;;;;24.38;13.13;;;14.40;99.90;;;;;;5004333;28;20187;-69
2023/04/08 11:03:42;;;;;;;19.33;12.13;;;14.20;99.90;;;;;;5013161;28;20560;-66
2023/04/08 11:06:08;;;;;;;16.85;10.77;;;14.10;99.90;;;;;;5012841;28;20222;-63
2023/04/08 11:08:38;;;;;;;17.67;12.10;;;13.90;99.90;;;;;;5039056;28;20191;-68
2023/04/08 11:11:09;;;;;;;20.48;10.73;;;13.70;99.90;;;;;;5014537;28;20628;-65
2023/04/08 11:13:36;;;;;;;24.60;13.25;;;13.70;99.90;;;;;;5007861;28;20515;-67
2023/04/08 11:16:04;;;;;;;22.58;12.50;;;13.60;99.90;;;;;;5007670;28;20187;-64
2023/04/08 11:18:31;;;;;;;20.23;12.45;;;13.80;99.90;;;;;;5015317;28;20246;-64
2023/04/08 11:20:57;;;;;;;23.88;11.82;;;14.00;99.90;;;;;;5006513;28;20196;-67
2023/04/08 11:23:26;;;;;;;18.83;10.25;;;14.10;99.90;;;;;;5010812;28;20186;-65
2023/04/08 11:25:52;;;;;;;20.70;12.23;;;14.20;99.90;;;;;;5013172;28;20176;-66
2023/04/08 11:28:18;;;;;;;20.85;12.13;;;14.30;99.90;;;;;;5011469;28;20497;-64
2023/04/08 11:30:44;;;;;;;18.35;10.40;;;14.70;99.90;;;;;;5002662;28;20183;-64
2023/04/08 11:33:11;;;;;;;16.80;11.45;;;14.90;99.90;;;;;;5006072;28;20171;-65
2023/04/08 11:35:41;;;;;;;18.50;10.30;;;14.90;99.90;;;;;;5008534;28;20238;-65
2023/04/08 11:38:11;;;;;;;17.70;11.30;;;15.20;99.90;;;;;;5012497;28;20215;-65
2023/04/08 11:40:37;;;;;;;18.13;11.95;;;15.30;99.90;;;;;;5010417;28;20595;-65
2023/04/08 11:43:10;;;;;;;16.55;10.88;;;15.30;99.90;;;;;;5005146;28;20179;-64
2023/04/08 11:45:40;;;;;;;17.17;10.23;;;15.30;99.90;;;;;;5011896;28;20179;-65
2023/04/08 11:48:14;;;;;;;19.35;11.52;;;15.20;99.90;;;;;;5005566;28;20211;-63
2023/04/08 11:50:40;;;;;;;18.92;11.90;;;15.20;99.90;;;;;;4999414;28;20187;-65
2023/04/08 11:53:18;;;;;;;14.15;10.25;;;15.50;99.90;;;;;;5003915;28;20184;-63
2023/04/08 11:55:44;;;;;;;18.50;10.70;;;15.60;99.90;;;;;;5011207;28;20191;-65
2023/04/08 11:58:10;;;;;;;16.00;9.57;;;15.70;99.90;;;;;;5010484;28;20219;-64
2023/04/08 12:00:36;;;;;;;20.05;9.73;;;16.10;99.90;;;;;;5026931;28;20188;-67
2023/04/08 12:03:02;;;;;;;17.70;9.50;;;16.30;99.90;;;;;;5005763;28;20549;-65
2023/04/08 12:05:28;;;;;;;13.70;10.05;;;16.40;99.90;;;;;;5001355;28;20191;-65
2023/04/08 12:07:53;;;;;;;20.95;8.80;;;16.80;99.90;;;;;;5011459;28;20671;-65
2023/04/08 12:10:19;;;;;;;15.02;9.73;;;16.90;99.90;;;;;;5010412;28;20195;-65
2023/04/08 12:12:45;;;;;;;16.77;10.27;;;17.20;99.90;;;;;;5012660;28;20187;-65
2023/04/08 12:15:11;;;;;;;17.70;10.18;;;17.20;99.90;;;;;;5043129;28;20191;-70
2023/04/08 12:17:39;;;;;;;20.27;10.68;;;17.30;99.90;;;;;;5008752;28;20243;-66
2023/04/08 12:20:06;;;;;;;17.42;11.65;;;17.20;99.90;;;;;;5007929;28;20191;-65
2023/04/08 12:22:32;;;;;;;14.57;9.05;;;17.10;99.90;;;;;;5011848;28;20178;-65
2023/04/08 12:24:58;;;;;;;19.05;10.65;;;17.20;99.90;;;;;;5010418;28;20266;-65
2023/04/08 12:27:23;;;;;;;17.55;10.00;;;17.00;99.90;;;;;;5045753;28;20593;-65
2023/04/08 12:29:50;;;;;;;14.50;10.02;;;16.80;99.90;;;;;;5013766;28;20191;-65
2023/04/08 12:32:16;;;;;;;17.13;10.10;;;16.70;99.90;;;;;;5006166;28;20543;-65